الصفحة الرئيسية
METAR-TAF:

METAR-TAF

مطار :

مطار مرسى علم الدولي

مرسى علم, مصر

دائرة عرض: 25-33-25N, خط طول: 34-35-01E, ارتفاع: 77 متر

مراقبة الطقس الحالي

تاريخ ووقت الإصدار 1ساعة و 50 دقيقة قبل الساعة 04:00UTC
ريح 12 عقدة من الغرب/الشمال الغربي
درجة الحرارة 17°درجة مئوية
الرطوبة 55%
ضغط 1020 hPa
الرؤية 10 كم أو أكثر
الغيوم لا تقل 1500 م ولا وجود لمزنة ركامية السحاب الأسود

METAR: HEMA 140400Z 29012KT CAVOK 17/08 Q1020 NOSIG

زمن: 07:50 (05:50 UTC)

توقعات

تاريخ ووقت الإصدار 50 دقيقة قبل الساعة 05:00UTC
التوقعات صالحة من14 الساعة 06 UTC إلى 15 الساعة 12 UTC
ريح 8 عقدة من الشمال تتزايد حتى 18 عقدة
الرؤية 10 كم أو أكثر
الغيوم لا تقل 1500 م ولا وجود لمزنة ركامية السحاب الأسود

TAF: HEMA 140500Z 1406/1512 36008G18KT CAVOK

أرصاد الطقس والتوقعات من أكثر من 4000 مطار (تقارير الطقس للمطار METAR والتنبؤ بالطقس بالمطارTAF).

المحطات المتاحة هي النقط الصفراء والحمراء على الخريطة.

حرك المؤشر فوق النقطة لمعرفة اسم المحطة.

ثم انقر لمعرفة أرصاد وتوقعات الطقس.

لتغيير الخارطة: اضغط على الأزرار الخضراء مع رمز الصليب الأسود للتكبير. على الزر الأخضر مع شرطة للتصغير، أو على الأسهم الخضراء للخرائط المجاورة.


METAR-TAF: